Terminal Aerodrome Forecast
Issued by NWS

Home | Current Version | Previous Version | Graphics & Text | Print | Product List | Glossary On
Versions: 1 2 3 4 5 6 7 8 9 10 11 12 13 14 15 16 17 18
000
FTUS43 KMPX 170500
TAFRWF
TAF
KRWF 170538Z 1706/1806 34016G24KT 5SM BR OVC015
     FM170800 33012G20KT P6SM BKN020
     FM171200 34011KT P6SM OVC025
     FM171500 34008KT P6SM SCT050
     FM171800 36009KT P6SM SCT250
     FM180200 VRB03KT P6SM BKN100=

USA.gov is the U.S. government's official web portal to all federal, state and local government web resources and services.